sensor_id;sensor_type;location;lat;lon;timestamp;temperature;humidity
18454;DHT22;9356;52.202;20.950;2024-01-15T00:00:19;1.70;99.90
18454;DHT22;9356;52.202;20.950;2024-01-15T00:01:23;1.80;99.90
18454;DHT22;9356;52.202;20.950;2024-01-15T00:02:28;1.80;99.90
18454;DHT22;9356;52.202;20.950;2024-01-15T00:03:34;1.80;99.90
18454;DHT22;9356;52.202;20.950;2024-01-15T00:04:43;1.80;99.90
18454;DHT22;9356;52.202;20.950;2024-01-15T00:05:49;1.80;99.90
18454;DHT22;9356;52.202;20.950;2024-01-15T00:06:53;1.90;99.90
18454;DHT22;9356;52.202;20.950;2024-01-15T00:08:01;1.80;99.90
18454;DHT22;9356;52.202;20.950;2024-01-15T00:09:06;1.80;99.90
18454;DHT22;9356;52.202;20.950;2024-01-15T00:10:12;1.90;99.90
18454;DHT22;9356;52.202;20.950;2024-01-15T00:11:17;1.70;99.90
18454;DHT22;9356;52.202;20.950;2024-01-15T00:12:22;1.80;99.90
18454;DHT22;9356;52.202;20.950;2024-01-15T00:13:28;1.80;99.90
18454;DHT22;9356;52.202;20.950;2024-01-15T00:14:32;1.80;99.90
18454;DHT22;9356;52.202;20.950;2024-01-15T00:15:36;1.90;99.90
18454;DHT22;9356;52.202;20.950;2024-01-15T00:16:46;1.90;99.90
18454;DHT22;9356;52.202;20.950;2024-01-15T00:17:52;1.80;99.90
18454;DHT22;9356;52.202;20.950;2024-01-15T00:19:01;1.70;99.90
18454;DHT22;9356;52.202;20.950;2024-01-15T00:20:05;1.80;99.90
18454;DHT22;9356;52.202;20.950;2024-01-15T00:21:12;1.70;99.90
18454;DHT22;9356;52.202;20.950;2024-01-15T00:22:15;1.80;99.90
18454;DHT22;9356;52.202;20.950;2024-01-15T00:23:19;1.70;99.90
18454;DHT22;9356;52.202;20.950;2024-01-15T00:24:25;1.80;99.90
18454;DHT22;9356;52.202;20.950;2024-01-15T00:25:30;1.30;99.90
18454;DHT22;9356;52.202;20.950;2024-01-15T00:26:34;1.80;99.90
18454;DHT22;9356;52.202;20.950;2024-01-15T00:27:39;2.80;99.90
18454;DHT22;9356;52.202;20.950;2024-01-15T00:28:43;1.80;99.90
18454;DHT22;9356;52.202;20.950;2024-01-15T00:29:47;1.70;99.90
18454;DHT22;9356;52.202;20.950;2024-01-15T00:30:53;1.70;99.90
18454;DHT22;9356;52.202;20.950;2024-01-15T00:31:58;1.80;99.90
18454;DHT22;9356;52.202;20.950;2024-01-15T00:33:01;1.60;99.90
18454;DHT22;9356;52.202;20.950;2024-01-15T00:34:13;1.70;99.90
18454;DHT22;9356;52.202;20.950;2024-01-15T00:35:19;1.70;99.90
18454;DHT22;9356;52.202;20.950;2024-01-15T00:36:24;1.70;99.90
18454;DHT22;9356;52.202;20.950;2024-01-15T00:37:31;1.80;99.90
18454;DHT22;9356;52.202;20.950;2024-01-15T00:38:35;1.60;99.90
18454;DHT22;9356;52.202;20.950;2024-01-15T00:39:41;1.60;99.90
18454;DHT22;9356;52.202;20.950;2024-01-15T00:40:54;1.70;99.90
18454;DHT22;9356;52.202;20.950;2024-01-15T00:41:58;1.80;99.90
18454;DHT22;9356;52.202;20.950;2024-01-15T00:43:05;1.80;99.90
18454;DHT22;9356;52.202;20.950;2024-01-15T00:44:12;1.80;99.90
18454;DHT22;9356;52.202;20.950;2024-01-15T00:45:20;1.80;99.90
18454;DHT22;9356;52.202;20.950;2024-01-15T00:46:26;1.80;99.90
18454;DHT22;9356;52.202;20.950;2024-01-15T00:47:30;1.70;99.90
18454;DHT22;9356;52.202;20.950;2024-01-15T00:48:34;1.70;99.90
18454;DHT22;9356;52.202;20.950;2024-01-15T00:49:41;1.60;99.90
18454;DHT22;9356;52.202;20.950;2024-01-15T00:50:49;1.60;99.90
18454;DHT22;9356;52.202;20.950;2024-01-15T00:51:54;1.40;99.90
18454;DHT22;9356;52.202;20.950;2024-01-15T00:52:57;1.80;99.90
18454;DHT22;9356;52.202;20.950;2024-01-15T00:54:02;1.40;99.90
18454;DHT22;9356;52.202;20.950;2024-01-15T00:55:07;1.40;99.90
18454;DHT22;9356;52.202;20.950;2024-01-15T00:56:11;1.50;99.90
18454;DHT22;9356;52.202;20.950;2024-01-15T00:57:17;1.50;99.90
18454;DHT22;9356;52.202;20.950;2024-01-15T00:58:22;1.50;99.90
18454;DHT22;9356;52.202;20.950;2024-01-15T00:59:32;1.50;99.90
18454;DHT22;9356;52.202;20.950;2024-01-15T01:00:35;1.50;99.90
18454;DHT22;9356;52.202;20.950;2024-01-15T01:01:42;1.50;99.90
18454;DHT22;9356;52.202;20.950;2024-01-15T01:02:49;1.50;99.90
18454;DHT22;9356;52.202;20.950;2024-01-15T01:03:53;1.50;99.90
18454;DHT22;9356;52.202;20.950;2024-01-15T01:04:59;1.50;99.90
18454;DHT22;9356;52.202;20.950;2024-01-15T01:06:06;1.50;99.90
18454;DHT22;9356;52.202;20.950;2024-01-15T01:07:11;1.50;99.90
18454;DHT22;9356;52.202;20.950;2024-01-15T01:08:15;1.50;99.90
18454;DHT22;9356;52.202;20.950;2024-01-15T01:09:18;1.40;99.90
18454;DHT22;9356;52.202;20.950;2024-01-15T01:10:23;1.40;99.90
18454;DHT22;9356;52.202;20.950;2024-01-15T01:11:27;1.40;99.90
18454;DHT22;9356;52.202;20.950;2024-01-15T01:12:34;1.40;99.90
18454;DHT22;9356;52.202;20.950;2024-01-15T01:13:37;1.50;99.90
18454;DHT22;9356;52.202;20.950;2024-01-15T01:14:41;1.60;99.90
18454;DHT22;9356;52.202;20.950;2024-01-15T01:15:45;1.60;99.90
18454;DHT22;9356;52.202;20.950;2024-01-15T01:16:49;1.70;99.90
18454;DHT22;9356;52.202;20.950;2024-01-15T01:17:53;1.70;99.90
18454;DHT22;9356;52.202;20.950;2024-01-15T01:18:57;1.60;99.90
18454;DHT22;9356;52.202;20.950;2024-01-15T01:20:06;1.70;99.90
18454;DHT22;9356;52.202;20.950;2024-01-15T01:21:20;1.70;99.90
18454;DHT22;9356;52.202;20.950;2024-01-15T01:22:25;1.70;99.90
18454;DHT22;9356;52.202;20.950;2024-01-15T01:23:29;1.70;99.90
18454;DHT22;9356;52.202;20.950;2024-01-15T01:24:33;1.80;99.90
18454;DHT22;9356;52.202;20.950;2024-01-15T01:25:42;1.70;99.90
18454;DHT22;9356;52.202;20.950;2024-01-15T01:26:46;1.50;99.90
18454;DHT22;9356;52.202;20.950;2024-01-15T01:27:53;1.60;99.90
18454;DHT22;9356;52.202;20.950;2024-01-15T01:28:57;1.60;99.90
18454;DHT22;9356;52.202;20.950;2024-01-15T01:30:01;1.50;99.90
18454;DHT22;9356;52.202;20.950;2024-01-15T01:31:05;1.60;99.90
18454;DHT22;9356;52.202;20.950;2024-01-15T01:32:12;1.60;99.90
18454;DHT22;9356;52.202;20.950;2024-01-15T01:33:18;1.70;99.90
18454;DHT22;9356;52.202;20.950;2024-01-15T01:34:26;1.60;99.90
18454;DHT22;9356;52.202;20.950;2024-01-15T01:35:37;1.60;99.90
18454;DHT22;9356;52.202;20.950;2024-01-15T01:36:42;1.40;99.90
18454;DHT22;9356;52.202;20.950;2024-01-15T01:37:46;1.40;99.90
18454;DHT22;9356;52.202;20.950;2024-01-15T01:38:50;1.40;99.90
18454;DHT22;9356;52.202;20.950;2024-01-15T01:40:07;1.30;99.90
18454;DHT22;9356;52.202;20.950;2024-01-15T01:41:13;1.40;99.90
18454;DHT22;9356;52.202;20.950;2024-01-15T01:42:18;1.50;99.90
18454;DHT22;9356;52.202;20.950;2024-01-15T01:43:27;1.40;99.90
18454;DHT22;9356;52.202;20.950;2024-01-15T01:44:30;2.40;99.90
18454;DHT22;9356;52.202;20.950;2024-01-15T01:45:35;1.50;99.90
18454;DHT22;9356;52.202;20.950;2024-01-15T01:46:39;1.50;99.90
18454;DHT22;9356;52.202;20.950;2024-01-15T01:47:44;1.40;99.90
18454;DHT22;9356;52.202;20.950;2024-01-15T01:48:49;1.90;99.90
18454;DHT22;9356;52.202;20.950;2024-01-15T01:49:54;1.50;99.90
18454;DHT22;9356;52.202;20.950;2024-01-15T01:51:02;1.30;99.90
18454;DHT22;9356;52.202;20.950;2024-01-15T01:52:10;1.40;99.90
18454;DHT22;9356;52.202;20.950;2024-01-15T01:53:14;1.40;99.90
18454;DHT22;9356;52.202;20.950;2024-01-15T01:54:23;1.40;99.90
18454;DHT22;9356;52.202;20.950;2024-01-15T01:55:30;1.30;99.90
18454;DHT22;9356;52.202;20.950;2024-01-15T01:56:36;1.40;99.90
18454;DHT22;9356;52.202;20.950;2024-01-15T01:57:43;1.40;99.90
18454;DHT22;9356;52.202;20.950;2024-01-15T01:58:50;1.50;99.90
18454;DHT22;9356;52.202;20.950;2024-01-15T01:59:58;1.40;99.90
18454;DHT22;9356;52.202;20.950;2024-01-15T02:01:13;1.40;99.90
18454;DHT22;9356;52.202;20.950;2024-01-15T02:02:18;1.40;99.90
18454;DHT22;9356;52.202;20.950;2024-01-15T02:03:23;1.40;99.90
18454;DHT22;9356;52.202;20.950;2024-01-15T02:04:29;1.70;99.90
18454;DHT22;9356;52.202;20.950;2024-01-15T02:05:37;1.50;99.90
18454;DHT22;9356;52.202;20.950;2024-01-15T02:06:44;1.50;99.90
18454;DHT22;9356;52.202;20.950;2024-01-15T02:07:51;1.50;99.90
18454;DHT22;9356;52.202;20.950;2024-01-15T02:08:57;1.50;99.90
18454;DHT22;9356;52.202;20.950;2024-01-15T02:10:01;1.50;99.90
18454;DHT22;9356;52.202;20.950;2024-01-15T02:11:08;1.40;99.90
18454;DHT22;9356;52.202;20.950;2024-01-15T02:12:18;1.50;99.90
18454;DHT22;9356;52.202;20.950;2024-01-15T02:13:26;1.60;99.90
18454;DHT22;9356;52.202;20.950;2024-01-15T02:14:33;2.00;99.90
18454;DHT22;9356;52.202;20.950;2024-01-15T02:15:42;1.60;99.90
18454;DHT22;9356;52.202;20.950;2024-01-15T02:16:54;1.70;99.90
18454;DHT22;9356;52.202;20.950;2024-01-15T02:17:58;1.70;99.90
18454;DHT22;9356;52.202;20.950;2024-01-15T02:19:03;1.70;99.90
18454;DHT22;9356;52.202;20.950;2024-01-15T02:20:08;1.70;99.90
18454;DHT22;9356;52.202;20.950;2024-01-15T02:21:12;1.60;99.90
18454;DHT22;9356;52.202;20.950;2024-01-15T02:22:29;1.60;99.90
18454;DHT22;9356;52.202;20.950;2024-01-15T02:23:42;1.60;99.90
18454;DHT22;9356;52.202;20.950;2024-01-15T02:24:47;1.70;99.90
18454;DHT22;9356;52.202;20.950;2024-01-15T02:25:53;1.60;99.90
18454;DHT22;9356;52.202;20.950;2024-01-15T02:26:57;1.60;99.90
18454;DHT22;9356;52.202;20.950;2024-01-15T02:28:02;1.60;99.90
18454;DHT22;9356;52.202;20.950;2024-01-15T02:29:12;1.60;99.90
18454;DHT22;9356;52.202;20.950;2024-01-15T02:30:17;2.30;99.90
18454;DHT22;9356;52.202;20.950;2024-01-15T02:31:21;1.60;99.90
18454;DHT22;9356;52.202;20.950;2024-01-15T02:32:25;1.70;99.90
18454;DHT22;9356;52.202;20.950;2024-01-15T02:33:30;1.70;99.90
18454;DHT22;9356;52.202;20.950;2024-01-15T02:34:34;1.50;99.90
18454;DHT22;9356;52.202;20.950;2024-01-15T02:35:43;1.50;99.90
18454;DHT22;9356;52.202;20.950;2024-01-15T02:36:56;1.50;99.90
18454;DHT22;9356;52.202;20.950;2024-01-15T02:38:06;1.60;99.90
18454;DHT22;9356;52.202;20.950;2024-01-15T02:39:12;1.50;99.90
18454;DHT22;9356;52.202;20.950;2024-01-15T02:40:18;1.40;99.90
18454;DHT22;9356;52.202;20.950;2024-01-15T02:41:26;1.50;99.90
18454;DHT22;9356;52.202;20.950;2024-01-15T02:42:34;1.60;99.90
18454;DHT22;9356;52.202;20.950;2024-01-15T02:43:39;1.60;99.90
18454;DHT22;9356;52.202;20.950;2024-01-15T02:44:44;2.00;99.90
18454;DHT22;9356;52.202;20.950;2024-01-15T02:45:51;2.20;99.90
18454;DHT22;9356;52.202;20.950;2024-01-15T02:46:58;1.70;99.90
18454;DHT22;9356;52.202;20.950;2024-01-15T02:48:05;1.70;99.90
18454;DHT22;9356;52.202;20.950;2024-01-15T02:49:10;1.70;99.90
18454;DHT22;9356;52.202;20.950;2024-01-15T02:50:19;1.70;99.90
18454;DHT22;9356;52.202;20.950;2024-01-15T02:51:26;1.60;99.90
18454;DHT22;9356;52.202;20.950;2024-01-15T02:52:32;1.60;99.90
18454;DHT22;9356;52.202;20.950;2024-01-15T02:53:39;1.70;99.90
18454;DHT22;9356;52.202;20.950;2024-01-15T02:54:45;1.70;99.90
18454;DHT22;9356;52.202;20.950;2024-01-15T02:55:52;1.50;99.90
18454;DHT22;9356;52.202;20.950;2024-01-15T02:56:56;1.50;99.90
18454;DHT22;9356;52.202;20.950;2024-01-15T02:58:02;1.60;99.90
18454;DHT22;9356;52.202;20.950;2024-01-15T02:59:11;1.70;99.90
18454;DHT22;9356;52.202;20.950;2024-01-15T03:00:18;1.70;99.90
18454;DHT22;9356;52.202;20.950;2024-01-15T03:01:23;1.60;99.90
18454;DHT22;9356;52.202;20.950;2024-01-15T03:02:31;1.30;99.90
18454;DHT22;9356;52.202;20.950;2024-01-15T03:03:46;1.50;99.90
18454;DHT22;9356;52.202;20.950;2024-01-15T03:04:51;1.60;99.90
18454;DHT22;9356;52.202;20.950;2024-01-15T03:05:59;1.20;99.90
18454;DHT22;9356;52.202;20.950;2024-01-15T03:07:06;1.70;99.90
18454;DHT22;9356;52.202;20.950;2024-01-15T03:08:11;1.70;99.90
18454;DHT22;9356;52.202;20.950;2024-01-15T03:09:15;1.80;99.90
18454;DHT22;9356;52.202;20.950;2024-01-15T03:10:23;1.80;99.90
18454;DHT22;9356;52.202;20.950;2024-01-15T03:11:37;1.70;99.90
18454;DHT22;9356;52.202;20.950;2024-01-15T03:12:41;1.80;99.90
18454;DHT22;9356;52.202;20.950;2024-01-15T03:13:45;1.70;99.90
18454;DHT22;9356;52.202;20.950;2024-01-15T03:14:49;1.80;99.90
18454;DHT22;9356;52.202;20.950;2024-01-15T03:15:53;1.60;99.90
18454;DHT22;9356;52.202;20.950;2024-01-15T03:16:57;1.60;99.90
18454;DHT22;9356;52.202;20.950;2024-01-15T03:18:04;1.50;99.90
18454;DHT22;9356;52.202;20.950;2024-01-15T03:19:09;1.60;99.90
18454;DHT22;9356;52.202;20.950;2024-01-15T03:20:13;1.50;99.90
18454;DHT22;9356;52.202;20.950;2024-01-15T03:21:16;1.50;99.90
18454;DHT22;9356;52.202;20.950;2024-01-15T03:22:23;1.50;99.90
18454;DHT22;9356;52.202;20.950;2024-01-15T03:23:29;1.50;99.90
18454;DHT22;9356;52.202;20.950;2024-01-15T03:24:35;1.40;99.90
18454;DHT22;9356;52.202;20.950;2024-01-15T03:25:42;1.40;99.90
18454;DHT22;9356;52.202;20.950;2024-01-15T03:26:48;1.50;99.90
18454;DHT22;9356;52.202;20.950;2024-01-15T03:27:51;1.30;99.90
18454;DHT22;9356;52.202;20.950;2024-01-15T03:28:56;1.20;99.90
18454;DHT22;9356;52.202;20.950;2024-01-15T03:29:59;1.20;99.90
18454;DHT22;9356;52.202;20.950;2024-01-15T03:31:12;1.20;99.90
18454;DHT22;9356;52.202;20.950;2024-01-15T03:32:17;1.30;99.90
18454;DHT22;9356;52.202;20.950;2024-01-15T03:33:22;1.30;99.90
18454;DHT22;9356;52.202;20.950;2024-01-15T03:34:26;1.60;99.90
18454;DHT22;9356;52.202;20.950;2024-01-15T03:35:30;1.00;99.90
18454;DHT22;9356;52.202;20.950;2024-01-15T03:36:35;1.30;99.90
18454;DHT22;9356;52.202;20.950;2024-01-15T03:37:39;1.40;99.90
18454;DHT22;9356;52.202;20.950;2024-01-15T03:38:43;1.60;99.90
18454;DHT22;9356;52.202;20.950;2024-01-15T03:39:47;1.30;99.90
18454;DHT22;9356;52.202;20.950;2024-01-15T03:40:56;1.30;99.90
18454;DHT22;9356;52.202;20.950;2024-01-15T03:42:06;1.50;99.90
18454;DHT22;9356;52.202;20.950;2024-01-15T03:43:10;1.30;99.90
18454;DHT22;9356;52.202;20.950;2024-01-15T03:44:14;1.20;99.90
18454;DHT22;9356;52.202;20.950;2024-01-15T03:45:17;1.30;99.90
18454;DHT22;9356;52.202;20.950;2024-01-15T03:46:23;1.30;99.90
18454;DHT22;9356;52.202;20.950;2024-01-15T03:47:27;1.70;99.90
18454;DHT22;9356;52.202;20.950;2024-01-15T03:48:33;1.20;99.90
18454;DHT22;9356;52.202;20.950;2024-01-15T03:49:37;1.30;99.90
18454;DHT22;9356;52.202;20.950;2024-01-15T03:50:44;1.20;99.90
18454;DHT22;9356;52.202;20.950;2024-01-15T03:51:47;1.20;99.90
18454;DHT22;9356;52.202;20.950;2024-01-15T03:52:51;1.20;99.90
18454;DHT22;9356;52.202;20.950;2024-01-15T03:53:55;1.50;99.90
18454;DHT22;9356;52.202;20.950;2024-01-15T03:54:59;1.50;99.90
18454;DHT22;9356;52.202;20.950;2024-01-15T03:56:07;1.50;99.90
18454;DHT22;9356;52.202;20.950;2024-01-15T03:57:11;1.30;99.90
18454;DHT22;9356;52.202;20.950;2024-01-15T03:58:14;1.40;99.90
18454;DHT22;9356;52.202;20.950;2024-01-15T03:59:18;1.40;99.90
18454;DHT22;9356;52.202;20.950;2024-01-15T04:00:23;1.40;99.90
18454;DHT22;9356;52.202;20.950;2024-01-15T04:01:27;1.40;99.90
18454;DHT22;9356;52.202;20.950;2024-01-15T04:02:32;1.40;99.90
18454;DHT22;9356;52.202;20.950;2024-01-15T04:03:35;1.80;99.90
18454;DHT22;9356;52.202;20.950;2024-01-15T04:04:41;1.50;99.90
18454;DHT22;9356;52.202;20.950;2024-01-15T04:05:53;1.40;99.90
18454;DHT22;9356;52.202;20.950;2024-01-15T04:06:58;1.40;99.90
18454;DHT22;9356;52.202;20.950;2024-01-15T04:08:01;1.30;99.90
18454;DHT22;9356;52.202;20.950;2024-01-15T04:09:12;1.30;99.90
18454;DHT22;9356;52.202;20.950;2024-01-15T04:10:48;1.20;99.90
18454;DHT22;9356;52.202;20.950;2024-01-15T04:11:55;1.20;99.90
18454;DHT22;9356;52.202;20.950;2024-01-15T04:13:00;1.20;99.90
18454;DHT22;9356;52.202;20.950;2024-01-15T04:14:06;1.10;99.90
18454;DHT22;9356;52.202;20.950;2024-01-15T04:15:09;0.90;99.90
18454;DHT22;9356;52.202;20.950;2024-01-15T04:16:14;1.10;99.90
18454;DHT22;9356;52.202;20.950;2024-01-15T04:17:20;1.20;99.90
18454;DHT22;9356;52.202;20.950;2024-01-15T04:18:25;1.00;99.90
18454;DHT22;9356;52.202;20.950;2024-01-15T04:19:29;1.50;99.90
18454;DHT22;9356;52.202;20.950;2024-01-15T04:20:34;1.40;99.90
18454;DHT22;9356;52.202;20.950;2024-01-15T04:21:38;1.20;99.90
18454;DHT22;9356;52.202;20.950;2024-01-15T04:22:45;1.40;99.90
18454;DHT22;9356;52.202;20.950;2024-01-15T04:23:49;1.50;99.90
18454;DHT22;9356;52.202;20.950;2024-01-15T04:24:53;1.10;99.90
18454;DHT22;9356;52.202;20.950;2024-01-15T04:25:57;1.60;99.90
18454;DHT22;9356;52.202;20.950;2024-01-15T04:27:03;1.60;99.90
18454;DHT22;9356;52.202;20.950;2024-01-15T04:28:09;1.60;99.90
18454;DHT22;9356;52.202;20.950;2024-01-15T04:29:17;1.60;99.90
18454;DHT22;9356;52.202;20.950;2024-01-15T04:30:20;1.60;99.90
18454;DHT22;9356;52.202;20.950;2024-01-15T04:31:30;1.50;99.90
18454;DHT22;9356;52.202;20.950;2024-01-15T04:32:33;1.50;99.90
18454;DHT22;9356;52.202;20.950;2024-01-15T04:33:41;1.50;99.90
18454;DHT22;9356;52.202;20.950;2024-01-15T04:34:48;1.50;99.90
18454;DHT22;9356;52.202;20.950;2024-01-15T04:35:55;1.50;99.90
18454;DHT22;9356;52.202;20.950;2024-01-15T04:36:58;1.40;99.90
18454;DHT22;9356;52.202;20.950;2024-01-15T04:38:06;1.40;99.90
18454;DHT22;9356;52.202;20.950;2024-01-15T04:39:10;1.30;99.90
18454;DHT22;9356;52.202;20.950;2024-01-15T04:40:17;1.30;99.90
18454;DHT22;9356;52.202;20.950;2024-01-15T04:41:25;1.40;99.90
18454;DHT22;9356;52.202;20.950;2024-01-15T04:42:33;1.40;99.90
18454;DHT22;9356;52.202;20.950;2024-01-15T04:43:39;1.30;99.90
18454;DHT22;9356;52.202;20.950;2024-01-15T04:44:45;1.30;99.90
18454;DHT22;9356;52.202;20.950;2024-01-15T04:45:50;1.30;99.90
18454;DHT22;9356;52.202;20.950;2024-01-15T04:46:57;1.30;99.90
18454;DHT22;9356;52.202;20.950;2024-01-15T04:48:00;1.30;99.90
18454;DHT22;9356;52.202;20.950;2024-01-15T04:49:06;1.20;99.90
18454;DHT22;9356;52.202;20.950;2024-01-15T04:50:11;1.20;99.90
18454;DHT22;9356;52.202;20.950;2024-01-15T04:51:15;1.20;99.90
18454;DHT22;9356;52.202;20.950;2024-01-15T04:52:19;1.10;99.90
18454;DHT22;9356;52.202;20.950;2024-01-15T04:53:25;1.20;99.90
18454;DHT22;9356;52.202;20.950;2024-01-15T04:54:30;1.20;99.90
18454;DHT22;9356;52.202;20.950;2024-01-15T04:55:41;1.20;99.90
18454;DHT22;9356;52.202;20.950;2024-01-15T04:56:45;1.10;99.90
18454;DHT22;9356;52.202;20.950;2024-01-15T04:57:51;1.10;99.90
18454;DHT22;9356;52.202;20.950;2024-01-15T04:58:55;1.10;99.90
18454;DHT22;9356;52.202;20.950;2024-01-15T05:00:03;1.10;99.90
18454;DHT22;9356;52.202;20.950;2024-01-15T05:01:08;1.10;99.90
18454;DHT22;9356;52.202;20.950;2024-01-15T05:02:13;0.40;99.90
18454;DHT22;9356;52.202;20.950;2024-01-15T05:03:21;1.10;99.90
18454;DHT22;9356;52.202;20.950;2024-01-15T05:04:25;1.20;99.90
18454;DHT22;9356;52.202;20.950;2024-01-15T05:05:30;1.20;99.90
18454;DHT22;9356;52.202;20.950;2024-01-15T05:06:33;1.30;99.90
18454;DHT22;9356;52.202;20.950;2024-01-15T05:07:37;1.20;99.90
18454;DHT22;9356;52.202;20.950;2024-01-15T05:08:45;1.10;99.90
18454;DHT22;9356;52.202;20.950;2024-01-15T05:09:53;1.10;99.90
18454;DHT22;9356;52.202;20.950;2024-01-15T05:10:56;1.10;99.90
18454;DHT22;9356;52.202;20.950;2024-01-15T05:12:01;1.10;99.90
18454;DHT22;9356;52.202;20.950;2024-01-15T05:13:05;1.20;99.90
18454;DHT22;9356;52.202;20.950;2024-01-15T05:14:10;1.30;99.90
18454;DHT22;9356;52.202;20.950;2024-01-15T05:15:13;1.30;99.90
18454;DHT22;9356;52.202;20.950;2024-01-15T05:16:17;1.30;99.90
18454;DHT22;9356;52.202;20.950;2024-01-15T05:17:21;1.40;99.90
18454;DHT22;9356;52.202;20.950;2024-01-15T05:18:28;1.40;99.90
18454;DHT22;9356;52.202;20.950;2024-01-15T05:19:32;1.40;99.90
18454;DHT22;9356;52.202;20.950;2024-01-15T05:20:36;1.50;99.90
18454;DHT22;9356;52.202;20.950;2024-01-15T05:21:44;1.40;99.90
18454;DHT22;9356;52.202;20.950;2024-01-15T05:22:49;1.30;99.90
18454;DHT22;9356;52.202;20.950;2024-01-15T05:23:56;2.00;99.90
18454;DHT22;9356;52.202;20.950;2024-01-15T05:25:00;1.40;99.90
18454;DHT22;9356;52.202;20.950;2024-01-15T05:26:05;1.60;99.90
18454;DHT22;9356;52.202;20.950;2024-01-15T05:27:11;1.50;99.90
18454;DHT22;9356;52.202;20.950;2024-01-15T05:28:17;1.40;99.90
18454;DHT22;9356;52.202;20.950;2024-01-15T05:29:23;1.40;99.90
18454;DHT22;9356;52.202;20.950;2024-01-15T05:30:30;1.40;99.90
18454;DHT22;9356;52.202;20.950;2024-01-15T05:31:40;1.40;99.90
18454;DHT22;9356;52.202;20.950;2024-01-15T05:32:47;1.60;99.90
18454;DHT22;9356;52.202;20.950;2024-01-15T05:33:56;1.30;99.90
18454;DHT22;9356;52.202;20.950;2024-01-15T05:35:00;1.40;99.90
18454;DHT22;9356;52.202;20.950;2024-01-15T05:36:05;0.20;99.90
18454;DHT22;9356;52.202;20.950;2024-01-15T05:37:17;1.20;99.90
18454;DHT22;9356;52.202;20.950;2024-01-15T05:38:21;1.30;99.90
18454;DHT22;9356;52.202;20.950;2024-01-15T05:39:28;1.20;99.90
18454;DHT22;9356;52.202;20.950;2024-01-15T05:40:36;1.20;99.90
18454;DHT22;9356;52.202;20.950;2024-01-15T05:41:41;1.20;99.90
18454;DHT22;9356;52.202;20.950;2024-01-15T05:42:45;1.30;99.90
18454;DHT22;9356;52.202;20.950;2024-01-15T05:43:53;1.20;99.90
18454;DHT22;9356;52.202;20.950;2024-01-15T05:45:02;1.20;99.90
18454;DHT22;9356;52.202;20.950;2024-01-15T05:46:11;1.30;99.90
18454;DHT22;9356;52.202;20.950;2024-01-15T05:47:16;1.10;99.90
18454;DHT22;9356;52.202;20.950;2024-01-15T05:48:20;1.30;99.90
18454;DHT22;9356;52.202;20.950;2024-01-15T05:49:25;1.20;99.90
18454;DHT22;9356;52.202;20.950;2024-01-15T05:50:28;0.90;99.90
18454;DHT22;9356;52.202;20.950;2024-01-15T05:51:32;1.20;99.90
18454;DHT22;9356;52.202;20.950;2024-01-15T05:52:36;1.20;99.90
18454;DHT22;9356;52.202;20.950;2024-01-15T05:53:40;1.20;99.90
18454;DHT22;9356;52.202;20.950;2024-01-15T05:54:46;1.30;99.90
18454;DHT22;9356;52.202;20.950;2024-01-15T05:55:53;1.30;99.90
18454;DHT22;9356;52.202;20.950;2024-01-15T05:56:58;1.20;99.90
18454;DHT22;9356;52.202;20.950;2024-01-15T05:58:03;1.10;99.90
18454;DHT22;9356;52.202;20.950;2024-01-15T05:59:08;1.10;99.90
18454;DHT22;9356;52.202;20.950;2024-01-15T06:00:17;1.20;99.90
18454;DHT22;9356;52.202;20.950;2024-01-15T06:01:21;0.90;99.90
18454;DHT22;9356;52.202;20.950;2024-01-15T06:02:26;1.30;99.90
18454;DHT22;9356;52.202;20.950;2024-01-15T06:03:29;1.40;99.90
18454;DHT22;9356;52.202;20.950;2024-01-15T06:04:35;1.30;99.90
18454;DHT22;9356;52.202;20.950;2024-01-15T06:05:39;1.40;99.90
18454;DHT22;9356;52.202;20.950;2024-01-15T06:06:45;1.30;99.90
18454;DHT22;9356;52.202;20.950;2024-01-15T06:07:53;1.20;99.90
18454;DHT22;9356;52.202;20.950;2024-01-15T06:08:57;1.20;99.90
18454;DHT22;9356;52.202;20.950;2024-01-15T06:10:05;1.10;99.90
18454;DHT22;9356;52.202;20.950;2024-01-15T06:11:12;1.10;99.90
18454;DHT22;9356;52.202;20.950;2024-01-15T06:12:15;1.10;99.90
18454;DHT22;9356;52.202;20.950;2024-01-15T06:13:20;1.00;99.90
18454;DHT22;9356;52.202;20.950;2024-01-15T06:14:24;1.00;99.90
18454;DHT22;9356;52.202;20.950;2024-01-15T06:15:29;1.10;99.90
18454;DHT22;9356;52.202;20.950;2024-01-15T06:16:36;1.70;99.90
18454;DHT22;9356;52.202;20.950;2024-01-15T06:17:41;1.10;99.90
18454;DHT22;9356;52.202;20.950;2024-01-15T06:18:49;1.10;99.90
18454;DHT22;9356;52.202;20.950;2024-01-15T06:19:52;1.10;99.90
18454;DHT22;9356;52.202;20.950;2024-01-15T06:20:56;1.00;99.90
18454;DHT22;9356;52.202;20.950;2024-01-15T06:21:59;1.10;99.90
18454;DHT22;9356;52.202;20.950;2024-01-15T06:23:03;1.10;99.90
18454;DHT22;9356;52.202;20.950;2024-01-15T06:24:08;1.10;99.90
18454;DHT22;9356;52.202;20.950;2024-01-15T06:25:15;1.10;99.90
18454;DHT22;9356;52.202;20.950;2024-01-15T06:26:21;1.10;99.90
18454;DHT22;9356;52.202;20.950;2024-01-15T06:27:24;1.20;99.90
18454;DHT22;9356;52.202;20.950;2024-01-15T06:28:34;1.20;99.90
18454;DHT22;9356;52.202;20.950;2024-01-15T06:29:44;1.20;99.90
18454;DHT22;9356;52.202;20.950;2024-01-15T06:30:52;1.10;99.90
18454;DHT22;9356;52.202;20.950;2024-01-15T06:31:55;1.00;99.90
18454;DHT22;9356;52.202;20.950;2024-01-15T06:33:00;1.10;99.90
18454;DHT22;9356;52.202;20.950;2024-01-15T06:34:04;1.20;99.90
18454;DHT22;9356;52.202;20.950;2024-01-15T06:35:11;1.20;99.90
18454;DHT22;9356;52.202;20.950;2024-01-15T06:36:15;1.30;99.90
18454;DHT22;9356;52.202;20.950;2024-01-15T06:37:20;1.10;99.90
18454;DHT22;9356;52.202;20.950;2024-01-15T06:38:23;1.20;99.90
18454;DHT22;9356;52.202;20.950;2024-01-15T06:39:28;1.20;99.90
18454;DHT22;9356;52.202;20.950;2024-01-15T06:40:31;1.20;99.90
18454;DHT22;9356;52.202;20.950;2024-01-15T06:41:36;1.10;99.90
18454;DHT22;9356;52.202;20.950;2024-01-15T06:42:43;0.90;99.90
18454;DHT22;9356;52.202;20.950;2024-01-15T06:43:48;1.30;99.90
18454;DHT22;9356;52.202;20.950;2024-01-15T06:44:53;1.30;99.90
18454;DHT22;9356;52.202;20.950;2024-01-15T06:45:57;1.40;99.90
18454;DHT22;9356;52.202;20.950;2024-01-15T06:47:07;1.40;99.90
18454;DHT22;9356;52.202;20.950;2024-01-15T06:48:11;1.30;99.90
18454;DHT22;9356;52.202;20.950;2024-01-15T06:49:20;1.20;99.90
18454;DHT22;9356;52.202;20.950;2024-01-15T06:50:24;1.30;99.90
18454;DHT22;9356;52.202;20.950;2024-01-15T06:51:28;1.30;99.90
18454;DHT22;9356;52.202;20.950;2024-01-15T06:52:34;1.30;99.90
18454;DHT22;9356;52.202;20.950;2024-01-15T06:53:37;1.20;99.90
18454;DHT22;9356;52.202;20.950;2024-01-15T06:54:41;0.60;99.90
18454;DHT22;9356;52.202;20.950;2024-01-15T06:55:51;1.20;99.90
18454;DHT22;9356;52.202;20.950;2024-01-15T06:56:58;1.30;99.90
18454;DHT22;9356;52.202;20.950;2024-01-15T06:58:01;1.20;99.90
18454;DHT22;9356;52.202;20.950;2024-01-15T06:59:05;1.10;99.90
18454;DHT22;9356;52.202;20.950;2024-01-15T07:00:11;1.20;99.90
18454;DHT22;9356;52.202;20.950;2024-01-15T07:01:16;1.20;99.90
18454;DHT22;9356;52.202;20.950;2024-01-15T07:02:22;1.30;99.90